createdAt,value
2023-05-08T00:02:27.104Z,4.50
2023-05-08T00:04:54.960Z,13.50
2023-05-08T00:07:22.153Z,4.25
2023-05-08T00:09:48.993Z,1.00
2023-05-08T00:12:17.509Z,3.25
2023-05-08T00:14:44.865Z,2.00
2023-05-08T00:17:11.630Z,20.25
2023-05-08T00:19:39.569Z,2.25
2023-05-08T00:22:06.879Z,4.50
2023-05-08T00:24:33.674Z,4.00
2023-05-08T00:27:01.425Z,6.25
2023-05-08T00:29:30.405Z,5.00
2023-05-08T00:31:58.110Z,6.50
2023-05-08T00:34:24.880Z,3.75
2023-05-08T00:36:52.290Z,6.25
2023-05-08T00:39:19.580Z,4.00
2023-05-08T00:41:46.609Z,2.75
2023-05-08T00:44:13.386Z,5.25
2023-05-08T00:46:43.636Z,20.00
2023-05-08T00:49:12.023Z,4.33
2023-05-08T00:51:39.873Z,3.00
2023-05-08T00:54:07.679Z,3.25
2023-05-08T00:56:37.653Z,5.33
2023-05-08T00:59:09.545Z,2.00
2023-05-08T01:01:38.048Z,2.00
2023-05-08T01:04:07.863Z,3.25
2023-05-08T01:06:36.042Z,3.00
2023-05-08T01:09:04.149Z,2.00
2023-05-08T01:11:38.296Z,3.50
2023-05-08T01:14:12.084Z,0.00
2023-05-08T01:16:45.481Z,3.50
2023-05-08T01:19:40.402Z,4.00
2023-05-08T01:22:20.573Z,2.75
2023-05-08T01:25:10.739Z,11.25
2023-05-08T01:28:08.530Z,3.00
2023-05-08T01:30:59.034Z,1.75
2023-05-08T01:33:35.739Z,1.00
2023-05-08T01:36:18.134Z,1.00
2023-05-08T01:38:54.104Z,1.00
2023-05-08T01:41:26.619Z,3.00
2023-05-08T01:44:05.857Z,2.25
2023-05-08T01:46:33.999Z,3.25
2023-05-08T01:49:08.523Z,8.33
2023-05-08T01:51:42.252Z,1.50
2023-05-08T01:54:13.401Z,2.75
2023-05-08T01:56:44.275Z,3.25
2023-05-08T01:59:16.075Z,1.50
2023-05-08T02:01:45.485Z,1.00
2023-05-08T02:04:17.649Z,4.00
2023-05-08T02:06:46.038Z,0.50
2023-05-08T02:09:14.452Z,3.00
2023-05-08T02:11:45.097Z,5.00
2023-05-08T02:14:14.010Z,2.75
2023-05-08T02:16:44.196Z,1.25
2023-05-08T02:19:15.387Z,1.00
2023-05-08T02:21:45.998Z,1.00
2023-05-08T02:24:15.550Z,3.00
2023-05-08T02:26:44.653Z,3.00
2023-05-08T02:29:12.889Z,5.00
2023-05-08T02:31:42.653Z,2.00
2023-05-08T02:34:11.906Z,4.75
2023-05-08T02:36:42.924Z,2.25
2023-05-08T02:39:14.601Z,2.00
2023-05-08T02:41:42.749Z,2.75
2023-05-08T02:44:10.736Z,2.50
2023-05-08T02:46:51.079Z,2.75
2023-05-08T02:49:30.348Z,1.25
2023-05-08T02:52:05.977Z,0.75
2023-05-08T02:54:41.007Z,2.25
2023-05-08T02:57:14.999Z,2.00
2023-05-08T02:59:47.625Z,8.50
2023-05-08T03:02:20.371Z,2.00
2023-05-08T03:04:55.133Z,9.00
2023-05-08T03:07:26.792Z,81.50
2023-05-08T03:09:59.350Z,92.80
2023-05-08T03:12:31.058Z,94.00
2023-05-08T03:15:04.202Z,461.75
2023-05-08T03:17:34.089Z,91.00
2023-05-08T03:20:05.632Z,92.50
2023-05-08T03:22:42.715Z,89.00
2023-05-08T03:25:11.539Z,274.75
2023-05-08T03:27:40.372Z,95.75
2023-05-08T03:30:10.097Z,2914.75
2023-05-08T03:32:38.997Z,1176.80
2023-05-08T03:35:08.062Z,832.00
2023-05-08T03:37:37.814Z,2716.60
2023-05-08T03:40:08.434Z,188.60
2023-05-08T03:42:38.134Z,1762.80
2023-05-08T03:45:07.504Z,665.60
2023-05-08T03:47:36.710Z,3082.40
2023-05-08T03:50:04.982Z,2642.40
2023-05-08T03:52:33.108Z,3495.20
2023-05-08T03:55:02.269Z,2404.40
2023-05-08T03:57:37.718Z,2842.20
2023-05-08T04:00:12.765Z,3658.20
2023-05-08T04:02:47.312Z,86.00
2023-05-08T04:05:25.595Z,3705.00
2023-05-08T04:07:56.746Z,2237.50
2023-05-08T04:10:32.295Z,679.60
2023-05-08T04:13:07.361Z,3399.00
2023-05-08T04:15:38.384Z,3132.50
2023-05-08T04:18:08.517Z,3716.40
2023-05-08T04:20:39.590Z,3710.00
2023-05-08T04:23:09.312Z,3006.50
2023-05-08T04:25:39.892Z,3693.00
2023-05-08T04:28:07.828Z,3682.60
2023-05-08T04:30:35.628Z,3518.25
2023-05-08T04:33:04.671Z,3685.80
2023-05-08T04:35:34.220Z,3707.25
2023-05-08T04:38:02.268Z,3710.00
2023-05-08T04:40:30.116Z,3375.00
2023-05-08T04:42:59.448Z,3464.80
2023-05-08T04:45:26.747Z,3262.20
2023-05-08T04:47:54.369Z,3708.40
2023-05-08T04:50:25.227Z,3521.50
2023-05-08T04:52:52.668Z,3215.80
2023-05-08T04:55:20.536Z,3628.60
2023-05-08T04:57:47.887Z,3718.00
2023-05-08T05:00:17.690Z,3701.80
2023-05-08T05:02:45.698Z,3690.80
2023-05-08T05:05:13.466Z,3693.25
2023-05-08T05:07:41.248Z,2534.75
2023-05-08T05:10:09.521Z,3005.80
2023-05-08T05:12:37.856Z,3717.00
2023-05-08T05:15:05.861Z,3761.25
2023-05-08T05:17:35.868Z,3449.25
2023-05-08T05:20:03.577Z,3772.80
2023-05-08T05:22:32.472Z,3671.40
2023-05-08T05:25:00.168Z,3751.40
2023-05-08T05:27:27.628Z,3774.40
2023-05-08T05:29:54.954Z,3771.50
2023-05-08T05:32:22.727Z,3763.25
2023-05-08T05:34:52.026Z,3752.80
2023-05-08T05:37:19.441Z,3773.25
2023-05-08T05:39:47.073Z,3775.00
2023-05-08T05:42:13.852Z,3766.20
2023-05-08T05:44:41.697Z,3633.50
2023-05-08T05:47:09.167Z,3774.80
2023-05-08T05:49:36.731Z,3801.25
2023-05-08T05:52:07.127Z,3790.50
2023-05-08T05:54:34.657Z,3781.75
2023-05-08T05:57:02.083Z,3808.60
2023-05-08T05:59:29.285Z,3782.00
2023-05-08T06:01:57.161Z,3682.75
2023-05-08T06:04:24.790Z,3810.20
2023-05-08T06:06:52.192Z,3780.00
2023-05-08T06:09:21.252Z,3767.00
2023-05-08T06:11:49.065Z,3746.00
2023-05-08T06:14:16.314Z,3773.50
2023-05-08T06:16:43.991Z,3788.50
2023-05-08T06:19:11.382Z,3786.80
2023-05-08T06:21:38.823Z,3798.60
2023-05-08T06:24:06.747Z,3800.40
2023-05-08T06:26:35.659Z,3761.40
2023-05-08T06:29:03.142Z,3795.00
2023-05-08T06:31:30.747Z,3766.80
2023-05-08T06:33:58.394Z,3793.20
2023-05-08T06:36:25.853Z,3755.40
2023-05-08T06:38:53.474Z,3790.75
2023-05-08T06:41:20.675Z,3756.50
2023-05-08T06:43:49.717Z,3776.20
2023-05-08T06:46:17.810Z,3785.00
2023-05-08T06:48:45.242Z,3751.40
2023-05-08T06:51:12.863Z,3800.40
2023-05-08T06:53:40.252Z,3746.40
2023-05-08T06:56:08.335Z,3801.25
2023-05-08T06:58:35.875Z,3747.80
2023-05-08T07:01:05.663Z,3748.00
2023-05-08T07:03:33.250Z,3790.25
2023-05-08T07:06:00.556Z,3784.25
2023-05-08T07:08:28.227Z,3786.80
2023-05-08T07:10:56.391Z,3771.60
2023-05-08T07:13:24.167Z,3793.20
2023-05-08T07:15:52.018Z,3802.20
2023-05-08T07:18:21.322Z,3746.60
2023-05-08T07:20:49.268Z,3784.00
2023-05-08T07:23:16.904Z,3771.50
2023-05-08T07:25:44.519Z,3779.60
2023-05-08T07:28:11.969Z,3761.25
2023-05-08T07:30:40.326Z,3746.50
2023-05-08T07:33:07.790Z,3756.20
2023-05-08T07:35:38.803Z,3777.50
2023-05-08T07:38:06.179Z,3726.20
2023-05-08T07:40:33.947Z,3786.75
2023-05-08T07:43:01.417Z,3786.80
2023-05-08T07:45:29.294Z,3741.60
2023-05-08T07:47:58.498Z,3723.80
2023-05-08T07:50:26.950Z,3734.50
2023-05-08T07:52:56.009Z,3740.00
2023-05-08T07:55:23.466Z,3775.50
2023-05-08T07:57:51.149Z,3773.50
2023-05-08T08:00:19.312Z,3754.40
2023-05-08T08:02:46.211Z,3776.80
2023-05-08T08:05:13.545Z,3751.60
2023-05-08T08:07:41.644Z,3759.00
2023-05-08T08:10:10.902Z,3763.50
2023-05-08T08:12:38.577Z,3769.25
2023-05-08T08:15:07.220Z,3805.60
2023-05-08T08:17:34.101Z,3780.00
2023-05-08T08:20:01.926Z,3740.00
2023-05-08T08:22:29.932Z,3788.60
2023-05-08T08:24:57.760Z,3742.50
2023-05-08T08:27:27.969Z,3726.00
2023-05-08T08:30:08.322Z,3726.00
2023-05-08T08:32:43.302Z,3714.20
2023-05-08T08:35:12.143Z,3742.50
2023-05-08T08:37:39.522Z,3728.40
2023-05-08T08:40:09.780Z,3721.50
2023-05-08T08:42:38.071Z,3741.80
2023-05-08T08:45:06.717Z,3728.20
2023-05-08T08:47:37.738Z,3726.00
2023-05-08T08:50:09.466Z,3738.00
2023-05-08T08:52:44.731Z,3731.60
2023-05-08T08:55:16.075Z,3752.75
2023-05-08T08:57:53.139Z,3711.00
2023-05-08T09:00:22.331Z,3703.60
2023-05-08T09:02:49.672Z,3717.50
2023-05-08T09:05:19.207Z,3743.00
2023-05-08T09:07:47.080Z,3710.00
2023-05-08T09:10:14.064Z,3748.50
2023-05-08T09:12:41.536Z,3738.50
2023-05-08T09:15:12.265Z,3713.50
2023-05-08T09:17:39.634Z,3738.00
2023-05-08T09:20:09.334Z,3744.25
2023-05-08T09:22:39.264Z,3720.00
2023-05-08T09:25:07.974Z,3724.00
2023-05-08T09:27:35.802Z,3705.25
2023-05-08T09:30:04.943Z,3726.80
2023-05-08T09:32:36.332Z,3703.50
2023-05-08T09:35:05.818Z,3728.60
2023-05-08T09:37:36.036Z,3682.80
2023-05-08T09:40:18.872Z,3709.75
2023-05-08T09:42:48.257Z,3721.75
2023-05-08T09:45:28.242Z,3711.50
2023-05-08T09:47:58.803Z,3719.60
2023-05-08T09:50:26.391Z,3711.50
2023-05-08T09:52:54.063Z,3707.50
2023-05-08T09:55:21.715Z,3700.40
2023-05-08T09:57:55.549Z,3692.60
2023-05-08T10:00:24.341Z,3679.60
2023-05-08T10:02:58.277Z,3685.00
2023-05-08T10:05:27.521Z,3724.33
2023-05-08T10:07:55.399Z,3713.00
2023-05-08T10:10:26.233Z,3677.00
2023-05-08T10:12:54.801Z,3701.50
2023-05-08T10:15:25.245Z,3669.50
2023-05-08T10:17:55.717Z,3653.00
2023-05-08T10:20:29.913Z,3673.00
2023-05-08T10:22:58.382Z,3687.40
2023-05-08T10:25:26.596Z,3671.50
2023-05-08T10:27:59.574Z,3677.00
2023-05-08T10:30:33.118Z,3637.40
2023-05-08T10:33:07.830Z,3677.00
2023-05-08T10:35:38.256Z,3708.40
2023-05-08T10:38:09.299Z,3655.40
2023-05-08T10:40:38.894Z,3684.20
2023-05-08T10:43:08.124Z,3627.80
2023-05-08T10:45:36.682Z,3683.00
2023-05-08T10:48:17.137Z,3683.25
2023-05-08T10:51:01.707Z,3663.40
2023-05-08T10:53:35.534Z,3697.50
2023-05-08T10:56:03.665Z,3653.50
2023-05-08T10:58:32.440Z,3652.80
2023-05-08T11:01:16.881Z,3653.80
2023-05-08T11:03:47.008Z,3673.00
2023-05-08T11:06:17.442Z,3653.50
2023-05-08T11:08:53.369Z,3630.00
2023-05-08T11:11:32.487Z,3661.50
2023-05-08T11:14:11.652Z,3605.00
2023-05-08T11:17:10.876Z,3624.60
2023-05-08T11:19:39.039Z,3655.40
2023-05-08T11:22:16.662Z,3601.00
2023-05-08T11:24:56.850Z,3630.00
2023-05-08T11:27:36.585Z,3649.50
2023-05-08T11:30:26.947Z,3561.00
2023-05-08T11:33:16.230Z,3610.50
2023-05-08T11:35:55.615Z,3607.20
2023-05-08T11:38:30.706Z,3569.80
2023-05-08T11:41:01.000Z,3608.80
2023-05-08T11:43:57.389Z,3590.60
2023-05-08T11:46:42.226Z,3595.50
2023-05-08T11:49:14.783Z,3568.75
2023-05-08T11:51:42.649Z,3563.40
2023-05-08T11:54:13.884Z,3580.00
2023-05-08T11:56:41.458Z,3573.80
2023-05-08T11:59:10.923Z,3565.00
2023-05-08T12:01:38.268Z,3585.50
2023-05-08T12:04:07.980Z,3593.50
2023-05-08T12:06:38.587Z,3590.40
2023-05-08T12:09:14.637Z,3588.00
2023-05-08T12:11:42.524Z,3556.00
2023-05-08T12:14:11.136Z,3582.00
2023-05-08T12:16:39.585Z,3580.00
2023-05-08T12:19:12.136Z,3607.20
2023-05-08T12:21:40.039Z,3593.20
2023-05-08T12:24:11.323Z,3588.00
2023-05-08T12:26:41.272Z,3574.50
2023-05-08T12:29:09.374Z,3561.00
2023-05-08T12:31:37.521Z,3553.50
2023-05-08T12:34:05.810Z,3565.00
2023-05-08T12:36:36.630Z,3572.50
2023-05-08T12:39:11.829Z,3520.00
2023-05-08T12:41:47.781Z,3538.75
2023-05-08T12:44:20.266Z,3539.40
2023-05-08T12:46:49.618Z,3544.00
2023-05-08T12:49:24.476Z,3537.60
2023-05-08T12:51:52.160Z,3558.60
2023-05-08T12:54:20.659Z,3515.00
2023-05-08T12:56:50.317Z,3539.00
2023-05-08T12:59:18.510Z,3554.00
2023-05-08T13:01:51.227Z,3521.40
2023-05-08T13:04:18.958Z,3554.40
2023-05-08T13:06:55.539Z,3492.20
2023-05-08T13:09:23.876Z,3535.50
2023-05-08T13:11:53.311Z,3542.75
2023-05-08T13:14:21.494Z,3523.20
2023-05-08T13:16:51.371Z,3542.50
2023-05-08T13:19:18.806Z,3531.00
2023-05-08T13:21:46.404Z,3518.75
2023-05-08T13:24:14.390Z,3487.75
2023-05-08T13:26:41.997Z,3518.60
2023-05-08T13:29:10.896Z,3484.00
2023-05-08T13:31:38.628Z,3498.00
2023-05-08T13:34:06.372Z,3511.40
2023-05-08T13:36:34.010Z,3524.00
2023-05-08T13:39:01.593Z,3529.20
2023-05-08T13:41:29.066Z,3528.00
2023-05-08T13:43:56.310Z,3543.60
2023-05-08T13:46:26.596Z,3545.00
2023-05-08T13:48:54.367Z,3529.20
2023-05-08T13:51:21.645Z,3513.00
2023-05-08T13:53:48.399Z,3527.50
2023-05-08T13:56:16.780Z,3547.75
2023-05-08T13:58:44.467Z,3561.60
2023-05-08T14:01:25.874Z,3527.40
2023-05-08T14:03:56.045Z,3504.20
2023-05-08T14:06:24.321Z,3517.40
2023-05-08T14:08:54.429Z,3511.00
2023-05-08T14:11:23.705Z,3482.80
2023-05-08T14:13:51.676Z,3511.40
2023-05-08T14:16:19.403Z,3500.00
2023-05-08T14:18:46.814Z,3480.50
2023-05-08T14:21:15.685Z,3513.00
2023-05-08T14:23:43.229Z,3509.50
2023-05-08T14:26:10.916Z,3506.00
2023-05-08T14:28:38.680Z,3502.00
2023-05-08T14:31:06.509Z,3527.50
2023-05-08T14:33:34.091Z,3525.80
2023-05-08T14:36:01.420Z,3520.50
2023-05-08T14:38:30.518Z,3563.00
2023-05-08T14:40:57.741Z,3502.00
2023-05-08T14:43:25.130Z,3511.25
2023-05-08T14:45:52.431Z,3509.60
2023-05-08T14:48:20.253Z,3541.00
2023-05-08T14:50:47.815Z,3517.00
2023-05-08T14:53:15.344Z,3531.00
2023-05-08T14:55:45.576Z,3526.60
2023-05-08T14:58:13.000Z,3531.50
2023-05-08T15:00:40.483Z,3542.50
2023-05-08T15:03:08.354Z,3572.50
2023-05-08T15:05:37.555Z,3557.00
2023-05-08T15:08:05.819Z,3527.50
2023-05-08T15:10:33.116Z,3516.50
2023-05-08T15:13:02.358Z,3504.20
2023-05-08T15:15:29.939Z,3517.20
2023-05-08T15:17:57.544Z,3527.60
2023-05-08T15:20:25.970Z,3548.00
2023-05-08T15:22:53.355Z,3541.00
2023-05-08T15:25:21.245Z,3554.40
2023-05-08T15:27:48.543Z,3546.60
2023-05-08T15:30:19.021Z,3542.60
2023-05-08T15:32:46.723Z,3545.80
2023-05-08T15:35:14.771Z,3544.50
2023-05-08T15:37:42.625Z,3593.20
2023-05-08T15:40:10.242Z,3570.60
2023-05-08T15:42:37.358Z,3549.80
2023-05-08T15:45:05.553Z,2970.80
2023-05-08T15:47:35.286Z,3570.50
2023-05-08T15:50:03.061Z,3579.80
2023-05-08T15:52:30.724Z,3561.00
2023-05-08T15:54:58.067Z,3557.20
2023-05-08T15:57:26.039Z,3576.50
2023-05-08T15:59:52.765Z,3581.60
2023-05-08T16:02:20.396Z,3587.50
2023-05-08T19:16:39.342Z,3389.50
2023-05-08T19:19:06.595Z,3590.20
2023-05-08T19:21:33.901Z,3603.00
2023-05-08T19:24:01.164Z,3614.50
2023-05-08T19:26:28.341Z,3608.80
2023-05-08T19:28:55.090Z,3590.80
2023-05-08T19:31:22.037Z,3587.50
2023-05-08T19:33:50.344Z,3595.00
2023-05-08T19:36:17.262Z,3599.40
2023-05-08T19:38:44.532Z,3599.40
2023-05-08T19:41:12.019Z,3602.60
2023-05-08T19:43:39.349Z,3580.20
2023-05-08T19:46:06.330Z,3612.00
2023-05-08T19:48:34.558Z,3629.00
2023-05-08T19:51:07.497Z,3586.40
2023-05-08T19:53:35.052Z,3586.40
2023-05-08T19:56:01.874Z,3610.20
2023-05-08T19:58:28.701Z,3618.00
2023-05-08T20:00:55.404Z,3637.75
2023-05-08T20:03:22.878Z,3610.50
2023-05-08T20:05:52.439Z,3610.50
2023-05-08T20:08:20.499Z,3622.60
2023-05-08T20:10:47.152Z,3619.60
2023-05-08T20:25:37.492Z,3621.20
2023-05-08T20:30:50.590Z,3612.00
2023-05-08T20:33:20.894Z,3614.50
2023-05-08T20:35:50.813Z,3610.50
2023-05-08T20:43:56.409Z,3591.50
2023-05-08T20:46:23.858Z,3637.00
2023-05-08T20:48:58.134Z,3601.00
2023-05-08T20:51:24.764Z,3576.25
2023-05-08T20:53:51.596Z,3586.00
2023-05-08T20:56:19.137Z,3616.20
2023-05-08T20:58:45.917Z,3563.00
2023-05-08T21:01:13.955Z,3554.00
2023-05-08T21:03:40.840Z,3597.50
2023-05-08T21:06:07.662Z,3591.60
2023-05-08T21:08:34.575Z,3595.50
2023-05-08T21:11:01.348Z,3606.00
2023-05-08T21:13:28.048Z,3622.60
2023-05-08T21:15:55.021Z,3589.50
2023-05-08T21:18:23.117Z,3590.60
2023-05-08T21:20:49.857Z,3593.20
2023-05-08T21:23:16.836Z,3550.00
2023-05-08T21:25:45.458Z,3606.00
2023-05-08T21:28:12.132Z,3587.60
2023-05-08T21:30:38.962Z,3591.50
2023-05-08T21:33:05.644Z,3555.00
2023-05-08T21:35:33.789Z,3568.50
2023-05-08T21:38:00.747Z,3593.20
2023-05-08T21:40:27.368Z,3591.50
2023-05-08T21:42:54.223Z,3599.00
2023-05-08T21:45:21.159Z,3595.50
2023-05-08T21:47:47.857Z,3550.00
2023-05-08T21:50:14.558Z,3553.20
2023-05-08T21:52:42.756Z,3591.50
2023-05-08T21:55:09.790Z,3593.20
2023-05-08T21:57:36.365Z,3608.75
2023-05-08T22:00:04.281Z,3612.00
2023-05-08T22:02:31.065Z,3605.60
2023-05-08T22:04:57.828Z,3597.00
2023-05-08T22:07:24.817Z,3589.50
2023-05-08T22:09:52.870Z,3605.80
2023-05-08T22:12:19.537Z,3587.50
2023-05-08T22:14:46.397Z,3566.60
2023-05-08T22:17:12.999Z,3568.50
2023-05-08T22:19:39.604Z,3584.00
2023-05-08T22:22:06.491Z,3563.40
2023-05-08T22:24:33.164Z,3587.60
2023-05-08T22:27:01.125Z,3614.80
2023-05-08T22:29:30.335Z,3597.00
2023-05-08T22:31:57.053Z,3565.00
2023-05-08T22:34:23.698Z,3593.50
2023-05-08T22:36:50.553Z,3601.20
2023-05-08T22:39:17.135Z,3595.20
2023-05-08T22:41:43.909Z,3604.00
2023-05-08T22:44:11.968Z,3586.40
2023-05-08T22:46:38.865Z,3621.20
2023-05-08T22:49:05.845Z,3563.40
2023-05-08T22:51:32.619Z,3580.00
2023-05-08T22:53:59.283Z,3614.50
2023-05-08T22:56:25.858Z,3609.20
2023-05-08T22:58:52.796Z,3572.20
2023-05-08T23:01:20.914Z,3582.80
2023-05-08T23:03:47.532Z,3606.00
2023-05-08T23:06:14.456Z,3606.75
2023-05-08T23:08:41.145Z,3603.00
2023-05-08T23:11:07.804Z,3601.20
2023-05-08T23:13:34.547Z,3622.60
2023-05-08T23:16:01.315Z,3590.20
2023-05-08T23:18:29.339Z,3608.75
2023-05-08T23:20:56.041Z,3609.20
2023-05-08T23:23:22.687Z,3624.20
2023-05-08T23:25:49.428Z,3614.80
2023-05-08T23:28:16.268Z,3563.00
2023-05-08T23:30:42.891Z,3622.60
2023-05-08T23:33:09.802Z,3621.20
2023-05-08T23:35:38.008Z,3606.50
2023-05-08T23:38:04.712Z,3593.40
2023-05-08T23:40:31.288Z,3616.20
2023-05-08T23:42:58.017Z,3616.00
2023-05-08T23:45:24.680Z,3610.25
2023-05-08T23:47:51.395Z,3595.25
2023-05-08T23:50:18.063Z,3563.00
2023-05-08T23:52:46.178Z,3622.60
2023-05-08T23:55:13.055Z,3618.00
2023-05-08T23:57:39.883Z,3590.20
